Time;durP1;ratioP1;P1;durP2;ratioP2;P2;SDS_P1;SDS_P2;PMS_P1;PMS_P2;Temp;Humidity;BMP_temperature;BMP_pressure;BME280_temperature;BME280_humidity;BME280_pressure;Samples;Min_cycle;Max_cycle;Signal;HPM_P1;HPM_P2
2023/08/14 00:02:25;;;;;;;14.50;10.13;;;;;;;;;;4920584;28;20192;-89
2023/08/14 00:04:51;;;;;;;11.23;9.40;;;;;;;;;;4915385;28;20094;-88
2023/08/14 00:07:17;;;;;;;15.20;10.63;;;;;;;;;;4916453;28;20581;-87
2023/08/14 00:09:44;;;;;;;14.60;9.45;;;;;;;;;;4907972;28;20555;-88
2023/08/14 00:12:10;;;;;;;12.35;9.70;;;;;;;;;;4913487;28;20054;-87
2023/08/14 00:14:36;;;;;;;10.52;8.60;;;;;;;;;;4923638;28;20079;-88
2023/08/14 00:17:02;;;;;;;12.88;8.95;;;;;;;;;;4932222;28;20067;-89
2023/08/14 00:19:28;;;;;;;15.00;9.25;;;;;;;;;;4930502;28;20169;-87
2023/08/14 00:21:55;;;;;;;9.57;8.07;;;;;;;;;;4914354;28;20057;-88
2023/08/14 00:24:21;;;;;;;17.52;11.18;;;;;;;;;;4928146;28;20043;-86
2023/08/14 00:26:47;;;;;;;14.18;10.27;;;;;;;;;;4920990;28;20043;-87
2023/08/14 00:29:13;;;;;;;13.73;9.77;;;;;;;;;;4925741;28;20046;-87
2023/08/14 00:31:39;;;;;;;12.57;9.60;;;;;;;;;;4917934;28;20058;-87
2023/08/14 00:34:05;;;;;;;12.80;10.20;;;;;;;;;;4934629;28;20046;-87
2023/08/14 00:36:32;;;;;;;13.32;8.65;;;;;;;;;;4915512;28;20069;-88
2023/08/14 00:38:58;;;;;;;15.00;9.88;;;;;;;;;;4915698;28;20053;-88
2023/08/14 00:41:24;;;;;;;15.25;10.65;;;;;;;;;;4927362;28;20443;-87
2023/08/14 00:43:51;;;;;;;17.95;9.55;;;;;;;;;;4902199;28;20476;-89
2023/08/14 00:46:18;;;;;;;13.13;11.10;;;;;;;;;;4923963;28;20055;-89
2023/08/14 00:48:44;;;;;;;12.05;10.77;;;;;;;;;;4945190;28;20043;-87
2023/08/14 00:51:10;;;;;;;20.52;11.50;;;;;;;;;;4919538;28;20038;-87
2023/08/14 00:53:36;;;;;;;12.60;10.40;;;;;;;;;;4918087;28;20126;-87
2023/08/14 00:56:03;;;;;;;12.45;11.15;;;;;;;;;;4911923;28;20117;-88
2023/08/14 00:58:29;;;;;;;13.30;9.50;;;;;;;;;;4910559;28;20034;-88
2023/08/14 01:00:57;;;;;;;13.30;10.65;;;;;;;;;;4904646;28;20058;-88
2023/08/14 01:03:24;;;;;;;11.93;9.02;;;;;;;;;;4903997;28;20396;-88
2023/08/14 01:05:50;;;;;;;11.38;9.52;;;;;;;;;;4914757;28;20050;-88
2023/08/14 01:08:16;;;;;;;10.90;9.75;;;;;;;;;;4922741;28;20447;-88
2023/08/14 01:11:07;;;;;;;10.00;8.88;;;;;;;;;;4943180;28;20038;-88
2023/08/14 01:13:33;;;;;;;15.25;8.88;;;;;;;;;;4923085;28;20558;-88
2023/08/14 01:16:02;;;;;;;14.55;10.00;;;;;;;;;;4905772;28;21821;-88
2023/08/14 01:18:29;;;;;;;12.05;9.45;;;;;;;;;;4897932;28;20043;-88
2023/08/14 01:21:04;;;;;;;10.68;9.07;;;;;;;;;;4910491;28;20474;-89
2023/08/14 01:23:41;;;;;;;16.70;9.85;;;;;;;;;;4912205;28;20075;-88
2023/08/14 01:26:07;;;;;;;15.13;9.82;;;;;;;;;;4918929;28;20039;-88
2023/08/14 01:28:36;;;;;;;10.57;9.43;;;;;;;;;;4904075;28;20042;-87
2023/08/14 01:31:02;;;;;;;15.73;9.95;;;;;;;;;;4910376;28;20050;-88
2023/08/14 01:33:30;;;;;;;11.13;9.32;;;;;;;;;;4916094;28;20058;-88
2023/08/14 01:36:20;;;;;;;11.63;9.93;;;;;;;;;;4898998;28;20050;-89
2023/08/14 01:38:58;;;;;;;15.77;9.73;;;;;;;;;;4908588;28;20078;-88
2023/08/14 01:41:27;;;;;;;10.45;9.45;;;;;;;;;;4909622;28;20327;-88
2023/08/14 01:43:55;;;;;;;15.82;11.27;;;;;;;;;;4912853;28;20047;-88
2023/08/14 01:46:21;;;;;;;9.35;8.43;;;;;;;;;;4916728;28;20051;-88
2023/08/14 01:48:49;;;;;;;12.27;9.43;;;;;;;;;;4914544;28;20069;-88
2023/08/14 01:51:17;;;;;;;10.70;9.38;;;;;;;;;;4915249;28;20500;-88
2023/08/14 01:53:43;;;;;;;13.45;10.38;;;;;;;;;;4910060;28;20069;-87
2023/08/14 01:56:09;;;;;;;14.20;10.63;;;;;;;;;;4913648;28;20142;-87
2023/08/14 01:58:35;;;;;;;10.90;9.77;;;;;;;;;;4910720;28;20078;-87
2023/08/14 02:01:01;;;;;;;12.00;9.40;;;;;;;;;;4911579;28;20097;-87
2023/08/14 02:03:28;;;;;;;11.80;10.38;;;;;;;;;;4915029;28;20051;-84
2023/08/14 02:05:54;;;;;;;11.32;10.02;;;;;;;;;;4900819;28;20059;-84
2023/08/14 02:08:20;;;;;;;12.18;10.07;;;;;;;;;;4901595;29;20052;-85
2023/08/14 02:10:46;;;;;;;15.38;9.73;;;;;;;;;;4878280;29;20062;-86
2023/08/14 02:13:12;;;;;;;12.00;9.77;;;;;;;;;;4897118;29;20448;-87
2023/08/14 02:15:38;;;;;;;10.57;9.57;;;;;;;;;;4910753;29;20135;-86
2023/08/14 02:18:05;;;;;;;15.18;9.45;;;;;;;;;;4898736;29;20346;-86
2023/08/14 02:20:31;;;;;;;11.50;9.48;;;;;;;;;;4882072;29;20036;-86
2023/08/14 02:22:57;;;;;;;11.05;9.07;;;;;;;;;;4899919;29;20054;-87
2023/08/14 02:25:23;;;;;;;18.00;10.02;;;;;;;;;;4886986;29;21691;-87
2023/08/14 02:27:49;;;;;;;12.80;10.07;;;;;;;;;;4917573;29;20764;-87
2023/08/14 02:30:15;;;;;;;13.75;10.77;;;;;;;;;;4918279;29;20043;-88
2023/08/14 02:32:41;;;;;;;13.10;10.05;;;;;;;;;;4920422;29;20575;-88
2023/08/14 02:35:08;;;;;;;12.23;9.68;;;;;;;;;;4926865;29;20118;-87
2023/08/14 02:37:34;;;;;;;11.05;9.52;;;;;;;;;;4912567;29;20095;-87
2023/08/14 02:40:00;;;;;;;17.02;9.98;;;;;;;;;;4903659;29;20135;-87
2023/08/14 02:42:26;;;;;;;17.08;10.95;;;;;;;;;;4905591;29;20835;-87
2023/08/14 02:44:52;;;;;;;12.63;11.15;;;;;;;;;;4912232;28;20107;-87
2023/08/14 02:47:18;;;;;;;16.00;12.20;;;;;;;;;;4917032;28;20075;-87
2023/08/14 02:49:44;;;;;;;17.35;12.70;;;;;;;;;;4892368;29;20059;-87
2023/08/14 02:52:10;;;;;;;16.80;13.15;;;;;;;;;;4895396;29;20047;-88
2023/08/14 02:54:36;;;;;;;15.73;11.70;;;;;;;;;;4892433;29;20044;-87
2023/08/14 02:57:03;;;;;;;18.58;13.95;;;;;;;;;;4908132;29;20047;-87
2023/08/14 02:59:29;;;;;;;18.50;13.02;;;;;;;;;;4899263;29;20046;-87
2023/08/14 03:01:55;;;;;;;17.63;12.70;;;;;;;;;;4920111;29;20051;-86
2023/08/14 03:04:21;;;;;;;18.45;13.50;;;;;;;;;;4910080;29;20111;-87
2023/08/14 03:06:47;;;;;;;16.33;13.23;;;;;;;;;;4908822;29;20040;-87
2023/08/14 03:09:13;;;;;;;16.08;12.60;;;;;;;;;;4908871;29;20104;-87
2023/08/14 03:11:39;;;;;;;15.38;11.95;;;;;;;;;;4907609;29;20428;-87
2023/08/14 03:14:05;;;;;;;17.08;13.00;;;;;;;;;;4919967;29;20082;-86
2023/08/14 03:16:32;;;;;;;15.95;13.02;;;;;;;;;;4887536;29;20044;-87
2023/08/14 03:18:58;;;;;;;15.75;12.68;;;;;;;;;;4923900;28;20052;-87
2023/08/14 03:21:24;;;;;;;18.00;12.23;;;;;;;;;;4910734;29;20520;-87
2023/08/14 03:23:50;;;;;;;17.52;12.07;;;;;;;;;;4911628;29;20043;-87
2023/08/14 03:26:17;;;;;;;15.07;12.07;;;;;;;;;;4902259;29;20047;-87
2023/08/14 03:28:43;;;;;;;17.58;11.35;;;;;;;;;;4909091;29;21070;-87
2023/08/14 03:31:10;;;;;;;13.77;11.75;;;;;;;;;;4922392;29;20044;-87
2023/08/14 03:33:36;;;;;;;13.35;11.95;;;;;;;;;;4905095;28;20069;-87
2023/08/14 03:36:02;;;;;;;13.73;11.13;;;;;;;;;;4928134;28;20512;-87
2023/08/14 03:38:28;;;;;;;15.52;12.48;;;;;;;;;;4935262;29;20054;-86
2023/08/14 03:40:54;;;;;;;18.30;12.40;;;;;;;;;;4904817;29;20079;-86
2023/08/14 03:43:21;;;;;;;17.02;12.15;;;;;;;;;;4913720;29;20051;-87
2023/08/14 03:45:47;;;;;;;14.35;12.15;;;;;;;;;;4911659;29;20079;-85
2023/08/14 03:48:13;;;;;;;20.92;12.63;;;;;;;;;;4910422;29;20096;-84
2023/08/14 03:50:39;;;;;;;14.82;12.23;;;;;;;;;;4916190;29;20040;-86
2023/08/14 03:53:05;;;;;;;19.00;12.55;;;;;;;;;;4906828;29;20040;-87
2023/08/14 03:55:31;;;;;;;15.77;12.93;;;;;;;;;;4921488;29;20073;-87
2023/08/14 03:57:57;;;;;;;16.48;12.90;;;;;;;;;;4904890;29;20131;-87
2023/08/14 04:00:24;;;;;;;18.25;12.77;;;;;;;;;;4912571;29;20040;-86
2023/08/14 04:02:50;;;;;;;15.50;13.13;;;;;;;;;;4907098;29;20042;-85
2023/08/14 04:05:16;;;;;;;14.60;11.75;;;;;;;;;;4916137;28;20158;-85
2023/08/14 04:07:42;;;;;;;14.20;11.77;;;;;;;;;;4922215;28;20039;-85
2023/08/14 04:10:08;;;;;;;15.52;11.48;;;;;;;;;;4938800;28;20525;-85
2023/08/14 04:12:34;;;;;;;14.25;11.88;;;;;;;;;;4924867;28;20055;-86
2023/08/14 04:15:16;;;;;;;20.20;12.48;;;;;;;;;;4910730;29;20134;-86
2023/08/14 04:17:42;;;;;;;19.88;13.05;;;;;;;;;;4923946;28;20071;-87
2023/08/14 04:20:09;;;;;;;15.38;12.57;;;;;;;;;;4918934;28;20042;-85
2023/08/14 04:22:35;;;;;;;21.40;13.68;;;;;;;;;;4927474;28;20628;-86
2023/08/14 04:25:07;;;;;;;15.55;12.40;;;;;;;;;;4929972;28;20103;-89
2023/08/14 04:27:36;;;;;;;16.77;11.82;;;;;;;;;;4901933;28;20043;-89
2023/08/14 04:30:10;;;;;;;14.18;11.15;;;;;;;;;;4917653;28;20517;-88
2023/08/14 04:32:40;;;;;;;16.80;12.50;;;;;;;;;;4914311;28;20107;-83
2023/08/14 04:35:08;;;;;;;22.25;12.10;;;;;;;;;;4903468;28;20039;-82
2023/08/14 04:37:34;;;;;;;17.20;12.10;;;;;;;;;;4892875;28;20392;-83
2023/08/14 04:40:00;;;;;;;19.00;12.63;;;;;;;;;;4908107;28;20407;-82
2023/08/14 04:42:26;;;;;;;16.08;12.73;;;;;;;;;;4906140;28;20051;-83
2023/08/14 04:44:52;;;;;;;18.15;13.43;;;;;;;;;;4921288;28;20055;-83
2023/08/14 04:47:20;;;;;;;21.75;14.15;;;;;;;;;;4907763;28;20047;-81
2023/08/14 04:49:46;;;;;;;17.20;13.85;;;;;;;;;;4924302;28;20043;-81
2023/08/14 04:52:15;;;;;;;17.95;13.65;;;;;;;;;;4919768;28;20972;-81
2023/08/14 04:54:41;;;;;;;17.23;13.82;;;;;;;;;;4923618;28;20483;-80
2023/08/14 04:57:07;;;;;;;25.48;15.18;;;;;;;;;;4945008;28;20043;-82
2023/08/14 04:59:33;;;;;;;20.60;14.43;;;;;;;;;;4898970;28;20043;-82
2023/08/14 05:01:59;;;;;;;16.38;13.98;;;;;;;;;;4942982;28;20123;-83
2023/08/14 05:04:25;;;;;;;21.02;14.70;;;;;;;;;;4912733;28;20766;-84
2023/08/14 05:06:52;;;;;;;18.00;14.60;;;;;;;;;;4914313;28;20044;-83
2023/08/14 05:09:18;;;;;;;20.13;14.77;;;;;;;;;;4928511;28;20071;-83
2023/08/14 05:11:44;;;;;;;22.67;15.80;;;;;;;;;;4909611;28;20182;-83
2023/08/14 05:14:11;;;;;;;18.98;15.57;;;;;;;;;;4907689;29;20039;-83
2023/08/14 05:16:37;;;;;;;22.25;16.30;;;;;;;;;;4914701;29;20047;-83
2023/08/14 05:19:03;;;;;;;22.67;15.95;;;;;;;;;;4915619;29;20047;-83
2023/08/14 05:21:29;;;;;;;19.40;15.57;;;;;;;;;;4929768;29;20047;-83
2023/08/14 05:23:55;;;;;;;19.48;16.20;;;;;;;;;;4940935;28;20119;-82
2023/08/14 05:26:21;;;;;;;17.70;15.13;;;;;;;;;;4924987;28;20290;-82
2023/08/14 05:28:47;;;;;;;22.13;15.82;;;;;;;;;;4912052;29;20036;-83
2023/08/14 05:31:14;;;;;;;20.17;15.13;;;;;;;;;;4895820;29;20115;-84
2023/08/14 05:33:40;;;;;;;17.00;14.45;;;;;;;;;;4900456;29;20044;-84
2023/08/14 05:36:06;;;;;;;20.85;15.63;;;;;;;;;;4893681;29;20051;-84
2023/08/14 05:38:32;;;;;;;25.35;16.02;;;;;;;;;;4910710;29;20032;-83
2023/08/14 05:40:59;;;;;;;19.48;15.82;;;;;;;;;;4896717;29;20118;-84
2023/08/14 05:43:25;;;;;;;18.52;15.35;;;;;;;;;;4913326;28;20059;-84
2023/08/14 05:45:51;;;;;;;26.15;15.73;;;;;;;;;;4908931;29;20126;-82
2023/08/14 05:48:17;;;;;;;19.77;15.10;;;;;;;;;;4919703;29;20031;-83
2023/08/14 05:50:46;;;;;;;19.33;15.63;;;;;;;;;;4923269;28;20047;-83
2023/08/14 05:53:12;;;;;;;20.40;16.15;;;;;;;;;;4908534;28;20046;-83
2023/08/14 05:55:45;;;;;;;20.15;16.35;;;;;;;;;;4900565;29;20564;-83
2023/08/14 05:58:12;;;;;;;22.70;16.92;;;;;;;;;;4925794;29;20130;-83
2023/08/14 06:00:38;;;;;;;26.60;16.67;;;;;;;;;;4920252;29;20188;-83
2023/08/14 06:03:05;;;;;;;28.98;17.15;;;;;;;;;;4933439;28;20035;-83
2023/08/14 06:05:34;;;;;;;19.42;16.92;;;;;;;;;;4916396;29;20528;-83
2023/08/14 06:08:01;;;;;;;23.35;17.40;;;;;;;;;;4925102;28;20052;-84
2023/08/14 06:10:27;;;;;;;22.50;15.90;;;;;;;;;;4940476;28;20066;-84
2023/08/14 06:12:53;;;;;;;25.33;15.98;;;;;;;;;;4923464;28;20051;-84
2023/08/14 06:15:19;;;;;;;24.67;16.45;;;;;;;;;;4912360;28;20146;-82
2023/08/14 06:17:46;;;;;;;23.88;17.25;;;;;;;;;;4915851;28;20098;-84
2023/08/14 06:20:12;;;;;;;21.58;16.00;;;;;;;;;;4926721;28;20058;-84
2023/08/14 06:22:46;;;;;;;22.77;17.05;;;;;;;;;;4910614;28;20051;-84
2023/08/14 06:25:13;;;;;;;20.97;16.30;;;;;;;;;;4940333;28;20067;-82
2023/08/14 06:27:40;;;;;;;18.15;16.08;;;;;;;;;;4910671;28;20308;-83
2023/08/14 06:30:08;;;;;;;19.33;15.60;;;;;;;;;;4921645;28;20049;-84
2023/08/14 06:32:34;;;;;;;20.60;16.17;;;;;;;;;;4924525;28;20039;-84
2023/08/14 06:35:01;;;;;;;21.92;16.50;;;;;;;;;;4917375;28;20039;-84
2023/08/14 06:37:27;;;;;;;17.02;13.95;;;;;;;;;;4916392;28;20791;-84
2023/08/14 06:39:55;;;;;;;22.13;15.88;;;;;;;;;;4918248;28;20062;-84
2023/08/14 06:42:22;;;;;;;21.65;15.93;;;;;;;;;;4915311;28;20047;-85
2023/08/14 06:44:48;;;;;;;17.38;15.02;;;;;;;;;;4924679;28;20146;-84
2023/08/14 06:47:14;;;;;;;16.95;14.50;;;;;;;;;;4929447;28;20084;-83
2023/08/14 06:49:40;;;;;;;19.25;14.50;;;;;;;;;;4915862;28;20066;-84
2023/08/14 06:52:06;;;;;;;21.45;15.70;;;;;;;;;;4926975;28;20054;-84
2023/08/14 06:54:33;;;;;;;21.95;15.27;;;;;;;;;;4917894;28;20097;-84
2023/08/14 06:57:01;;;;;;;19.90;15.20;;;;;;;;;;4911958;28;20047;-84
2023/08/14 06:59:27;;;;;;;22.55;14.95;;;;;;;;;;4934583;28;20039;-84
2023/08/14 07:01:56;;;;;;;18.35;14.50;;;;;;;;;;4933420;28;20047;-84
2023/08/14 07:04:23;;;;;;;20.15;15.88;;;;;;;;;;4901156;28;20058;-84
2023/08/14 07:06:49;;;;;;;20.27;14.68;;;;;;;;;;4917024;28;20043;-83
2023/08/14 07:09:17;;;;;;;19.00;14.73;;;;;;;;;;4910763;28;20134;-83
2023/08/14 07:11:44;;;;;;;17.00;14.73;;;;;;;;;;4890573;29;20497;-84
2023/08/14 07:14:10;;;;;;;20.52;13.48;;;;;;;;;;4898087;29;21006;-83
2023/08/14 07:16:36;;;;;;;22.92;13.07;;;;;;;;;;4909209;29;20048;-82
2023/08/14 07:19:02;;;;;;;19.98;14.55;;;;;;;;;;4900355;29;20134;-84
2023/08/14 07:21:28;;;;;;;16.73;13.85;;;;;;;;;;4912797;29;20299;-84
2023/08/14 07:23:54;;;;;;;19.60;14.02;;;;;;;;;;4875604;29;20859;-84
2023/08/14 07:26:21;;;;;;;21.50;14.15;;;;;;;;;;4915874;29;20054;-83
2023/08/14 07:28:47;;;;;;;19.08;13.63;;;;;;;;;;4910166;29;20044;-83
2023/08/14 07:31:13;;;;;;;15.98;13.90;;;;;;;;;;4911768;29;20036;-83
2023/08/14 07:33:42;;;;;;;17.67;13.05;;;;;;;;;;4897409;29;20130;-83
2023/08/14 07:36:15;;;;;;;20.63;12.05;;;;;;;;;;4906524;28;20050;-84
2023/08/14 07:38:41;;;;;;;17.65;13.52;;;;;;;;;;4892057;29;20061;-84
2023/08/14 07:41:08;;;;;;;14.65;12.10;;;;;;;;;;4893499;29;20048;-82
2023/08/14 07:43:34;;;;;;;19.83;12.18;;;;;;;;;;4909726;28;20094;-85
2023/08/14 07:46:03;;;;;;;17.83;11.45;;;;;;;;;;4896822;29;20052;-85
2023/08/14 07:48:29;;;;;;;13.77;8.30;;;;;;;;;;4899728;28;20043;-85
2023/08/14 07:50:55;;;;;;;11.13;7.82;;;;;;;;;;4906543;29;20036;-85
2023/08/14 07:53:22;;;;;;;9.73;7.03;;;;;;;;;;4896411;28;20050;-84
2023/08/14 07:55:48;;;;;;;13.82;7.45;;;;;;;;;;4880712;28;20168;-83
2023/08/14 07:58:15;;;;;;;10.68;6.40;;;;;;;;;;4912356;28;20607;-85
2023/08/14 08:00:55;;;;;;;10.98;7.38;;;;;;;;;;4899402;29;20073;-84
2023/08/14 08:03:34;;;;;;;12.80;6.78;;;;;;;;;;4894366;29;20044;-85
2023/08/14 08:06:01;;;;;;;12.27;5.95;;;;;;;;;;4877619;29;20052;-84
2023/08/14 08:08:39;;;;;;;10.43;4.97;;;;;;;;;;4881467;28;20333;-84
2023/08/14 08:11:05;;;;;;;10.13;5.65;;;;;;;;;;4892601;28;20051;-83
2023/08/14 08:13:31;;;;;;;9.05;5.20;;;;;;;;;;4890423;28;20768;-82
2023/08/14 08:16:08;;;;;;;9.40;4.85;;;;;;;;;;4908079;28;20081;-84
2023/08/14 08:18:35;;;;;;;10.05;5.22;;;;;;;;;;4905290;28;20087;-81
2023/08/14 08:21:01;;;;;;;10.02;4.85;;;;;;;;;;4897378;28;20540;-82
2023/08/14 08:23:27;;;;;;;8.15;4.60;;;;;;;;;;4907982;28;20454;-83
2023/08/14 08:25:53;;;;;;;9.27;4.85;;;;;;;;;;4909720;28;20055;-82
2023/08/14 08:28:19;;;;;;;6.70;4.78;;;;;;;;;;4910094;28;20050;-83
2023/08/14 08:30:46;;;;;;;12.70;5.55;;;;;;;;;;4907845;28;20098;-83
2023/08/14 08:33:12;;;;;;;8.85;4.68;;;;;;;;;;4917534;28;20053;-82
2023/08/14 08:35:41;;;;;;;8.68;4.82;;;;;;;;;;4918543;28;20046;-83
2023/08/14 08:38:07;;;;;;;10.05;4.03;;;;;;;;;;4914817;28;20123;-83
2023/08/14 08:40:34;;;;;;;5.50;3.53;;;;;;;;;;4899211;28;20056;-83
2023/08/14 08:43:02;;;;;;;4.55;3.50;;;;;;;;;;4912562;28;20602;-83
2023/08/14 08:45:31;;;;;;;4.68;3.60;;;;;;;;;;4899554;28;20711;-83
2023/08/14 08:47:59;;;;;;;7.25;3.80;;;;;;;;;;4896505;28;20084;-81
2023/08/14 08:50:34;;;;;;;7.65;3.30;;;;;;;;;;4908665;28;20098;-83
2023/08/14 08:53:01;;;;;;;5.82;2.72;;;;;;;;;;4912601;28;20035;-84
2023/08/14 08:55:30;;;;;;;5.82;3.20;;;;;;;;;;4927453;28;20058;-84
2023/08/14 08:58:00;;;;;;;4.85;3.03;;;;;;;;;;4907518;28;20035;-84
2023/08/14 09:00:26;;;;;;;6.43;3.10;;;;;;;;;;4906290;28;20055;-85
2023/08/14 09:02:53;;;;;;;7.65;3.17;;;;;;;;;;4908531;28;20055;-84
2023/08/14 09:05:22;;;;;;;4.50;2.85;;;;;;;;;;4897530;28;20071;-84
2023/08/14 09:07:51;;;;;;;5.13;3.15;;;;;;;;;;4880354;28;20065;-84
2023/08/14 09:10:18;;;;;;;4.88;2.83;;;;;;;;;;4892177;29;20814;-84
2023/08/14 09:12:47;;;;;;;5.60;2.63;;;;;;;;;;4918444;28;20607;-85
2023/08/14 09:15:14;;;;;;;11.20;3.15;;;;;;;;;;4922427;29;20039;-84
2023/08/14 09:17:42;;;;;;;5.55;2.92;;;;;;;;;;4925345;28;20058;-84
2023/08/14 09:20:14;;;;;;;7.80;2.92;;;;;;;;;;4894617;29;20055;-83
2023/08/14 09:22:40;;;;;;;5.13;2.20;;;;;;;;;;4921647;28;20043;-84
2023/08/14 09:25:07;;;;;;;6.80;2.08;;;;;;;;;;4922233;29;21873;-83
2023/08/14 09:27:36;;;;;;;6.80;2.30;;;;;;;;;;4887465;29;20040;-84
2023/08/14 09:30:05;;;;;;;5.85;2.40;;;;;;;;;;4926303;28;20115;-84
2023/08/14 09:32:32;;;;;;;6.43;1.83;;;;;;;;;;4908102;29;20043;-83
2023/08/14 09:35:02;;;;;;;5.65;2.08;;;;;;;;;;4909860;29;20035;-86
2023/08/14 09:37:30;;;;;;;5.70;2.05;;;;;;;;;;4908025;29;20067;-84
2023/08/14 09:40:14;;;;;;;5.10;1.77;;;;;;;;;;4908426;29;20060;-85
2023/08/14 09:42:43;;;;;;;4.53;2.20;;;;;;;;;;4922369;29;20083;-86
2023/08/14 09:45:10;;;;;;;5.28;3.15;;;;;;;;;;4922405;28;20059;-86
2023/08/14 09:47:37;;;;;;;7.50;2.40;;;;;;;;;;4913563;28;20535;-85
2023/08/14 09:50:03;;;;;;;2.05;1.20;;;;;;;;;;4903427;29;22017;-85
2023/08/14 09:52:29;;;;;;;5.63;1.30;;;;;;;;;;4917545;29;20039;-86
2023/08/14 09:54:58;;;;;;;5.97;2.00;;;;;;;;;;4921012;28;20043;-81
2023/08/14 09:57:25;;;;;;;5.10;1.50;;;;;;;;;;4878068;29;20048;-83
2023/08/14 09:59:52;;;;;;;5.68;1.48;;;;;;;;;;4900779;29;20059;-83
2023/08/14 10:02:41;;;;;;;;;;;;;;;;;;;;;
2023/08/14 10:09:17;;;;;;;2.22;1.27;;;;;;;;;;4913972;28;19933;-84
2023/08/14 10:12:07;;;;;;;;;;;;;;;;;;;;;
2023/08/14 10:15:10;;;;;;;;;;;;;;;;;;;;;
2023/08/14 10:18:09;;;;;;;5.60;1.77;;;;;;;;;;4900484;28;20391;-83
2023/08/14 10:21:10;;;;;;;4.30;1.40;;;;;;;;;;4894706;29;20052;-83
2023/08/14 10:23:42;;;;;;;3.03;1.13;;;;;;;;;;4858876;29;20056;-83
2023/08/14 10:26:21;;;;;;;5.13;1.67;;;;;;;;;;4877724;29;20036;-82
2023/08/14 10:28:50;;;;;;;3.80;1.50;;;;;;;;;;4861654;29;20154;-82
2023/08/14 10:34:30;;;;;;;5.05;1.50;;;;;;;;;;4876465;29;20076;-83
2023/08/14 10:37:39;;;;;;;3.42;1.30;;;;;;;;;;4874365;29;20536;-82
2023/08/14 10:40:18;;;;;;;4.63;1.58;;;;;;;;;;4859136;29;20048;-83
2023/08/14 10:45:48;;;;;;;5.43;1.60;;;;;;;;;;4891300;29;20568;-84
2023/08/14 10:48:21;;;;;;;5.40;2.00;;;;;;;;;;4878769;29;20044;-83
2023/08/14 10:51:02;;;;;;;4.22;1.73;;;;;;;;;;4893178;28;20131;-84
2023/08/14 10:53:35;;;;;;;3.63;1.52;;;;;;;;;;4898207;28;20035;-83
2023/08/14 10:56:22;;;;;;;5.38;2.00;;;;;;;;;;4911477;28;20090;-84
2023/08/14 10:59:01;;;;;;;4.53;1.40;;;;;;;;;;4899887;28;20047;-84
2023/08/14 11:01:36;;;;;;;4.60;1.55;;;;;;;;;;4902439;28;20053;-83
2023/08/14 11:07:08;;;;;;;4.55;1.40;;;;;;;;;;4915097;28;20054;-83
2023/08/14 11:09:38;;;;;;;6.88;1.65;;;;;;;;;;4916027;28;20516;-84
2023/08/14 11:12:11;;;;;;;6.28;1.52;;;;;;;;;;4900126;28;20515;-84
2023/08/14 11:14:41;;;;;;;4.93;1.38;;;;;;;;;;4914731;28;20042;-81
2023/08/14 11:17:15;;;;;;;8.85;1.90;;;;;;;;;;4912057;28;20147;-83
2023/08/14 11:19:42;;;;;;;3.35;1.33;;;;;;;;;;4917292;28;20173;-83
2023/08/14 11:22:11;;;;;;;5.47;1.30;;;;;;;;;;4903590;28;20047;-83
2023/08/14 11:24:37;;;;;;;5.03;1.83;;;;;;;;;;4913991;28;20392;-83
2023/08/14 11:27:06;;;;;;;3.85;1.15;;;;;;;;;;4912855;28;20048;-83
2023/08/14 11:29:32;;;;;;;6.63;1.38;;;;;;;;;;4908066;28;20051;-83
2023/08/14 11:32:04;;;;;;;3.00;1.10;;;;;;;;;;4923042;28;20766;-84
2023/08/14 11:34:41;;;;;;;3.20;1.13;;;;;;;;;;4912937;28;20058;-83
2023/08/14 11:37:07;;;;;;;7.68;1.55;;;;;;;;;;4909494;28;20081;-83
2023/08/14 11:39:34;;;;;;;4.32;1.52;;;;;;;;;;4904028;28;20067;-83
2023/08/14 11:42:02;;;;;;;3.72;1.48;;;;;;;;;;4908081;28;20050;-83
2023/08/14 11:44:31;;;;;;;4.03;1.60;;;;;;;;;;4923783;28;20054;-84
2023/08/14 11:46:57;;;;;;;5.07;1.58;;;;;;;;;;4911170;28;20114;-84
2023/08/14 11:49:26;;;;;;;3.30;1.70;;;;;;;;;;4924203;28;20443;-84
2023/08/14 11:51:53;;;;;;;3.65;1.00;;;;;;;;;;4902984;28;20059;-82
2023/08/14 11:54:22;;;;;;;4.53;1.30;;;;;;;;;;4918379;28;20047;-83
2023/08/14 11:56:48;;;;;;;4.85;1.40;;;;;;;;;;4915942;28;20169;-83
2023/08/14 11:59:18;;;;;;;5.47;1.58;;;;;;;;;;4908157;28;20042;-83
2023/08/14 12:01:44;;;;;;;5.97;1.52;;;;;;;;;;4912313;28;20052;-83
2023/08/14 12:04:11;;;;;;;3.92;1.60;;;;;;;;;;4913334;28;20075;-83
2023/08/14 12:06:37;;;;;;;3.85;1.55;;;;;;;;;;4910699;28;20043;-83
2023/08/14 12:09:07;;;;;;;4.28;1.60;;;;;;;;;;4905306;28;20051;-82
2023/08/14 12:11:35;;;;;;;3.95;1.60;;;;;;;;;;4909780;28;20051;-82
2023/08/14 12:14:03;;;;;;;4.32;1.40;;;;;;;;;;4901854;28;20042;-82
2023/08/14 12:16:30;;;;;;;3.42;1.48;;;;;;;;;;4915782;28;20063;-85
2023/08/14 12:18:57;;;;;;;4.55;1.50;;;;;;;;;;4904473;28;20054;-85
2023/08/14 12:21:29;;;;;;;4.65;1.63;;;;;;;;;;4914987;28;20494;-85
2023/08/14 12:23:55;;;;;;;3.23;1.43;;;;;;;;;;4922499;28;20035;-85
2023/08/14 12:26:22;;;;;;;4.18;1.38;;;;;;;;;;4919803;28;20055;-84
2023/08/14 12:28:53;;;;;;;5.00;1.40;;;;;;;;;;4923173;28;20053;-84
2023/08/14 12:31:20;;;;;;;3.80;1.58;;;;;;;;;;4925754;28;20484;-85
2023/08/14 12:33:50;;;;;;;4.28;1.45;;;;;;;;;;4926929;28;20062;-84
2023/08/14 12:36:19;;;;;;;5.13;1.73;;;;;;;;;;4933361;28;20054;-83
2023/08/14 12:38:45;;;;;;;7.25;1.83;;;;;;;;;;4899609;28;20503;-82
2023/08/14 12:41:28;;;;;;;5.15;1.52;;;;;;;;;;4913063;28;20050;-81
2023/08/14 12:43:54;;;;;;;4.38;1.63;;;;;;;;;;4900678;28;20055;-83
2023/08/14 12:46:21;;;;;;;4.93;1.40;;;;;;;;;;4897383;28;20476;-82
2023/08/14 12:48:47;;;;;;;3.25;1.50;;;;;;;;;;4909407;28;20047;-82
2023/08/14 12:51:16;;;;;;;4.57;1.30;;;;;;;;;;4890875;28;20722;-82
2023/08/14 12:53:42;;;;;;;5.30;1.58;;;;;;;;;;4907753;28;20040;-81
2023/08/14 12:56:09;;;;;;;4.35;1.67;;;;;;;;;;4909233;28;20044;-82
2023/08/14 12:58:36;;;;;;;3.50;1.60;;;;;;;;;;4899187;28;20098;-83
2023/08/14 13:01:05;;;;;;;5.05;1.70;;;;;;;;;;4898505;28;20031;-84
2023/08/14 13:03:31;;;;;;;5.18;1.33;;;;;;;;;;4892581;28;20126;-82
2023/08/14 13:05:58;;;;;;;7.97;1.95;;;;;;;;;;4905827;28;20103;-79
2023/08/14 13:08:24;;;;;;;4.32;1.33;;;;;;;;;;4908437;28;20043;-78
2023/08/14 13:10:50;;;;;;;5.95;1.40;;;;;;;;;;4924073;28;20381;-79
2023/08/14 13:13:18;;;;;;;5.85;1.63;;;;;;;;;;4912113;28;20043;-80
2023/08/14 13:15:44;;;;;;;2.28;1.30;;;;;;;;;;4922393;28;20105;-80
2023/08/14 13:18:10;;;;;;;3.85;1.50;;;;;;;;;;4915012;28;20047;-80
2023/08/14 13:20:36;;;;;;;5.70;1.60;;;;;;;;;;4927522;28;20042;-80
2023/08/14 13:23:02;;;;;;;8.65;2.08;;;;;;;;;;4907132;28;20098;-80
2023/08/14 13:25:29;;;;;;;4.60;1.48;;;;;;;;;;4904297;28;20052;-80
2023/08/14 13:27:55;;;;;;;4.50;1.75;;;;;;;;;;4909035;28;20233;-80
2023/08/14 13:30:21;;;;;;;5.65;2.03;;;;;;;;;;4891890;28;20058;-81
2023/08/14 13:32:47;;;;;;;6.30;1.33;;;;;;;;;;4902874;28;21490;-81
2023/08/14 13:35:27;;;;;;;4.90;1.35;;;;;;;;;;4876145;28;20058;-81
2023/08/14 13:38:03;;;;;;;3.70;1.55;;;;;;;;;;4887647;28;20051;-81
2023/08/14 13:40:29;;;;;;;3.33;1.30;;;;;;;;;;4903433;28;20568;-80
2023/08/14 13:42:55;;;;;;;6.53;1.63;;;;;;;;;;4888556;28;21022;-82
2023/08/14 13:45:23;;;;;;;5.35;1.65;;;;;;;;;;4907341;28;20047;-81
2023/08/14 13:47:49;;;;;;;2.45;1.50;;;;;;;;;;4898854;28;20158;-81
2023/08/14 13:50:21;;;;;;;4.95;1.40;;;;;;;;;;4922444;28;20046;-82
2023/08/14 13:52:47;;;;;;;5.85;1.80;;;;;;;;;;4905911;28;20051;-81
2023/08/14 13:55:14;;;;;;;4.45;1.52;;;;;;;;;;4896009;28;20050;-81
2023/08/14 13:57:49;;;;;;;6.80;1.83;;;;;;;;;;4890824;28;20063;-80
2023/08/14 14:00:18;;;;;;;3.47;1.08;;;;;;;;;;4907742;28;20134;-80
2023/08/14 14:02:47;;;;;;;11.18;1.67;;;;;;;;;;4912509;28;20110;-81
2023/08/14 14:05:15;;;;;;;6.72;1.90;;;;;;;;;;4905504;28;20051;-81
2023/08/14 14:07:41;;;;;;;5.57;1.88;;;;;;;;;;4905585;28;20635;-82
2023/08/14 14:10:10;;;;;;;7.90;1.70;;;;;;;;;;4900885;28;20060;-83
2023/08/14 14:12:37;;;;;;;2.97;1.20;;;;;;;;;;4913506;28;20507;-83
2023/08/14 14:15:06;;;;;;;7.70;2.17;;;;;;;;;;4910224;28;20062;-84
2023/08/14 14:17:32;;;;;;;5.50;1.50;;;;;;;;;;4903802;28;20058;-82
2023/08/14 14:20:00;;;;;;;5.35;1.40;;;;;;;;;;4900583;28;20066;-82
2023/08/14 14:22:26;;;;;;;6.07;1.63;;;;;;;;;;4908715;28;21987;-81
2023/08/14 14:24:52;;;;;;;7.78;1.60;;;;;;;;;;4894409;28;20114;-82
2023/08/14 14:27:19;;;;;;;3.85;1.58;;;;;;;;;;4906136;28;20125;-82
2023/08/14 14:29:45;;;;;;;5.85;1.52;;;;;;;;;;4911979;28;20050;-82
2023/08/14 14:32:11;;;;;;;4.78;1.38;;;;;;;;;;4911792;28;22169;-82
2023/08/14 14:34:37;;;;;;;6.63;2.00;;;;;;;;;;4899955;28;20066;-82
2023/08/14 14:37:03;;;;;;;2.80;1.08;;;;;;;;;;4914611;28;20053;-84
2023/08/14 14:39:30;;;;;;;5.60;1.50;;;;;;;;;;4917576;28;22072;-83
2023/08/14 14:41:56;;;;;;;4.80;1.67;;;;;;;;;;4911213;28;20051;-84
2023/08/14 14:44:22;;;;;;;6.38;1.65;;;;;;;;;;4918269;28;20099;-84
2023/08/14 14:46:48;;;;;;;6.13;1.67;;;;;;;;;;4907968;28;20046;-83
2023/08/14 14:49:14;;;;;;;3.83;1.63;;;;;;;;;;4907174;28;20061;-82
2023/08/14 14:51:40;;;;;;;4.03;1.75;;;;;;;;;;4914769;28;20127;-83
2023/08/14 14:54:07;;;;;;;3.40;1.70;;;;;;;;;;4913077;28;20040;-84